Time;durP1;ratioP1;P1;durP2;ratioP2;P2;SDS_P1;SDS_P2;PMS_P1;PMS_P2;Temp;Humidity;BMP_temperature;BMP_pressure;BME280_temperature;BME280_humidity;BME280_pressure;Samples;Min_cycle;Max_cycle;Signal;HPM_P1;HPM_P2
2022/10/09 00:01:38;;;;;;;1.00;0.70;;;9.70;99.90;;;;;;5002341;28;20238;-80
2022/10/09 00:04:04;;;;;;;1.80;1.13;;;9.70;99.90;;;;;;5001902;28;20431;-80
2022/10/09 00:06:33;;;;;;;2.17;0.97;;;9.70;99.90;;;;;;5003578;28;20676;-79
2022/10/09 00:09:00;;;;;;;1.53;1.43;;;9.60;99.90;;;;;;5002117;28;20241;-80
2022/10/09 00:11:28;;;;;;;1.33;1.33;;;9.60;99.90;;;;;;5003015;28;20227;-80
2022/10/09 00:13:54;;;;;;;0.60;0.60;;;9.60;99.90;;;;;;5002137;28;20187;-81
2022/10/09 00:16:22;;;;;;;3.57;0.83;;;9.60;99.90;;;;;;5002389;28;20191;-79
2022/10/09 00:18:48;;;;;;;11.20;1.97;;;9.60;99.90;;;;;;5002473;28;20219;-79
2022/10/09 00:21:23;;;;;;;4.13;1.27;;;9.60;99.90;;;;;;5002482;28;20682;-79
2022/10/09 00:23:50;;;;;;;3.23;1.40;;;9.60;99.90;;;;;;5003319;28;20269;-79
2022/10/09 00:26:16;;;;;;;1.40;1.20;;;9.60;99.90;;;;;;5002846;28;20268;-79
2022/10/09 00:28:43;;;;;;;4.27;2.10;;;9.60;99.90;;;;;;5035515;28;21073;-81
2022/10/09 00:31:10;;;;;;;3.13;1.27;;;9.60;99.90;;;;;;5033148;28;20231;-78
2022/10/09 00:33:36;;;;;;;8.80;1.40;;;9.60;99.90;;;;;;5002972;28;20227;-79
2022/10/09 00:36:04;;;;;;;0.77;0.77;;;9.60;99.90;;;;;;5001549;28;20223;-78
2022/10/09 00:38:31;;;;;;;1.63;1.50;;;9.50;99.90;;;;;;5002658;28;20695;-82
2022/10/09 00:40:56;;;;;;;5.10;1.13;;;9.50;99.90;;;;;;4984654;28;20305;-81
2022/10/09 00:43:49;;;;;;;5.70;0.77;;;9.50;99.90;;;;;;5003118;28;20831;-80
2022/10/09 00:46:18;;;;;;;3.07;1.07;;;9.50;99.90;;;;;;5001252;28;20904;-81
2022/10/09 00:48:46;;;;;;;5.30;1.30;;;9.50;99.90;;;;;;5002987;28;20223;-81
2022/10/09 00:51:12;;;;;;;0.70;0.70;;;9.50;99.90;;;;;;5002065;28;20259;-81
2022/10/09 00:53:37;;;;;;;1.50;1.40;;;9.50;99.90;;;;;;5001226;28;20623;-82
2022/10/09 00:56:03;;;;;;;1.40;1.30;;;9.60;99.90;;;;;;5001911;28;20183;-79
2022/10/09 00:58:29;;;;;;;1.00;1.00;;;9.60;99.90;;;;;;4984702;28;20545;-82
2022/10/09 01:00:55;;;;;;;1.43;1.33;;;9.70;99.90;;;;;;5002320;28;20274;-80
2022/10/09 01:03:20;;;;;;;1.60;0.67;;;9.80;99.90;;;;;;5000847;28;20306;-80
2022/10/09 01:06:06;;;;;;;0.70;0.67;;;9.70;99.90;;;;;;5001578;28;20238;-80
2022/10/09 01:08:53;;;;;;;5.90;0.80;;;9.70;99.90;;;;;;5002576;28;20272;-81
2022/10/09 01:11:34;;;;;;;2.73;1.23;;;9.70;99.90;;;;;;5001020;28;20276;-81
2022/10/09 01:14:15;;;;;;;1.27;0.93;;;9.60;99.90;;;;;;5006187;28;20182;-78
2022/10/09 01:16:55;;;;;;;1.27;1.03;;;9.50;99.90;;;;;;5009214;28;20182;-79
2022/10/09 01:19:45;;;;;;;3.53;1.63;;;9.50;99.90;;;;;;5017276;28;20257;-82
2022/10/09 01:22:38;;;;;;;1.53;0.80;;;9.40;99.90;;;;;;5001414;28;20218;-79
2022/10/09 01:25:13;;;;;;;1.53;0.97;;;9.30;99.90;;;;;;5034247;28;20227;-82
2022/10/09 01:27:40;;;;;;;1.53;1.27;;;9.30;99.90;;;;;;5002279;28;20218;-81
2022/10/09 01:30:09;;;;;;;1.03;1.00;;;9.20;99.90;;;;;;5001702;28;20322;-80
2022/10/09 01:32:49;;;;;;;1.23;0.93;;;9.20;99.90;;;;;;5002550;28;20223;-80
2022/10/09 01:35:16;;;;;;;0.50;0.50;;;9.10;99.90;;;;;;5016983;28;20242;-80
2022/10/09 01:37:44;;;;;;;3.50;1.10;;;9.10;99.90;;;;;;5003128;28;20195;-79
2022/10/09 01:40:13;;;;;;;1.23;0.93;;;9.00;99.90;;;;;;5001809;28;20227;-79
2022/10/09 01:42:39;;;;;;;1.20;0.97;;;9.10;99.90;;;;;;5003863;28;20229;-80
2022/10/09 01:45:06;;;;;;;3.27;1.13;;;9.00;99.90;;;;;;5037010;28;20427;-80
2022/10/09 01:47:31;;;;;;;0.63;0.63;;;9.00;99.90;;;;;;5037633;28;20265;-80
2022/10/09 01:49:58;;;;;;;7.93;0.90;;;9.00;99.90;;;;;;5003927;28;20733;-80
2022/10/09 01:52:35;;;;;;;2.63;1.50;;;9.00;99.90;;;;;;5005020;28;20195;-80
2022/10/09 01:55:06;;;;;;;1.13;0.77;;;9.00;99.90;;;;;;5006301;28;20215;-79
2022/10/09 01:58:02;;;;;;;11.77;1.90;;;9.00;99.90;;;;;;5005518;28;20227;-81
2022/10/09 02:00:32;;;;;;;1.83;1.50;;;9.00;99.90;;;;;;5001467;28;20271;-79
2022/10/09 02:02:59;;;;;;;0.80;0.80;;;9.00;99.90;;;;;;5005790;28;20729;-82
2022/10/09 02:05:27;;;;;;;1.13;1.03;;;9.00;99.90;;;;;;5004247;28;20743;-80
2022/10/09 02:07:55;;;;;;;2.93;0.80;;;9.00;99.90;;;;;;5004892;28;20176;-79
2022/10/09 02:10:22;;;;;;;5.03;1.03;;;9.00;99.90;;;;;;5005326;28;20219;-81
2022/10/09 02:12:56;;;;;;;0.83;0.83;;;9.00;99.90;;;;;;5005195;28;20222;-79
2022/10/09 02:15:30;;;;;;;1.23;1.13;;;9.10;99.90;;;;;;5005273;28;20219;-79
2022/10/09 02:18:05;;;;;;;1.43;1.33;;;9.10;99.90;;;;;;5004298;28;20717;-80
2022/10/09 02:20:35;;;;;;;0.67;0.67;;;9.00;99.90;;;;;;5004443;28;20202;-81
2022/10/09 02:23:04;;;;;;;1.47;1.17;;;9.00;99.90;;;;;;5003223;28;20310;-81
2022/10/09 02:25:30;;;;;;;1.40;1.30;;;8.90;99.90;;;;;;5005090;28;20191;-81
2022/10/09 02:27:57;;;;;;;1.63;1.53;;;8.80;99.90;;;;;;5019735;28;20219;-81
2022/10/09 02:30:25;;;;;;;14.23;2.60;;;8.80;99.90;;;;;;5012287;28;20342;-80
2022/10/09 02:32:54;;;;;;;3.07;1.30;;;8.80;99.90;;;;;;5004553;28;20350;-80
2022/10/09 02:35:20;;;;;;;8.83;1.63;;;8.70;99.90;;;;;;5004361;28;20223;-80
2022/10/09 02:37:48;;;;;;;1.40;1.00;;;8.70;99.90;;;;;;5004101;28;20229;-80
2022/10/09 02:40:14;;;;;;;0.97;0.93;;;8.70;99.90;;;;;;5003714;28;20247;-80
2022/10/09 02:42:40;;;;;;;2.53;1.00;;;8.60;99.90;;;;;;5004089;28;20222;-80
2022/10/09 02:45:07;;;;;;;2.57;1.60;;;8.60;99.90;;;;;;5003655;28;20243;-80
2022/10/09 02:47:33;;;;;;;5.60;0.73;;;8.60;99.90;;;;;;5036099;28;20310;-79
2022/10/09 02:49:58;;;;;;;1.40;1.30;;;8.60;99.90;;;;;;5004245;28;20642;-80
2022/10/09 02:52:24;;;;;;;1.40;1.30;;;8.60;99.90;;;;;;5003464;28;20476;-80
2022/10/09 02:54:50;;;;;;;2.47;0.90;;;8.50;99.90;;;;;;5004503;28;20242;-79
2022/10/09 02:57:15;;;;;;;1.43;1.33;;;8.60;99.90;;;;;;5035630;28;21014;-80
2022/10/09 02:59:41;;;;;;;4.03;1.37;;;8.50;99.90;;;;;;5004608;28;20219;-80
2022/10/09 03:02:07;;;;;;;1.53;1.43;;;8.50;99.90;;;;;;5004703;28;20704;-82
2022/10/09 03:04:32;;;;;;;1.40;1.30;;;8.50;99.90;;;;;;5003498;28;20305;-79
2022/10/09 03:06:58;;;;;;;1.30;1.20;;;8.50;99.90;;;;;;5003997;28;20242;-80
2022/10/09 03:09:24;;;;;;;3.13;1.50;;;8.50;99.90;;;;;;5002847;28;20986;-82
2022/10/09 03:11:49;;;;;;;5.17;1.37;;;8.50;99.90;;;;;;5003296;28;20231;-80
2022/10/09 03:14:15;;;;;;;1.50;1.40;;;8.40;99.90;;;;;;5035624;28;20549;-82
2022/10/09 03:16:41;;;;;;;1.93;1.00;;;8.50;99.90;;;;;;5019608;28;20211;-81
2022/10/09 03:19:07;;;;;;;5.07;2.13;;;8.50;99.90;;;;;;5002693;28;20219;-81
2022/10/09 03:21:32;;;;;;;3.33;1.60;;;8.50;99.90;;;;;;5001781;28;20272;-82
2022/10/09 03:23:58;;;;;;;1.60;1.50;;;8.40;99.90;;;;;;4986978;28;20262;-80
2022/10/09 03:26:27;;;;;;;2.17;1.97;;;8.40;99.90;;;;;;5019434;28;20805;-79
2022/10/09 03:28:53;;;;;;;2.27;1.60;;;8.40;99.90;;;;;;5003366;28;20191;-81
2022/10/09 03:31:22;;;;;;;3.30;1.90;;;8.50;99.90;;;;;;5002798;28;20211;-81
2022/10/09 03:33:48;;;;;;;1.13;1.03;;;8.40;99.90;;;;;;5002986;28;20211;-79
2022/10/09 03:36:14;;;;;;;1.63;1.20;;;8.40;99.90;;;;;;5001654;28;20234;-80
2022/10/09 03:38:40;;;;;;;3.57;1.90;;;8.40;99.90;;;;;;5002332;28;20231;-80
2022/10/09 03:41:06;;;;;;;8.40;1.53;;;8.40;99.90;;;;;;5002152;28;20282;-81
2022/10/09 03:43:32;;;;;;;2.63;1.43;;;8.40;99.90;;;;;;5003875;28;20467;-80
2022/10/09 03:45:58;;;;;;;1.13;1.03;;;8.40;99.90;;;;;;5002217;28;20230;-81
2022/10/09 03:48:24;;;;;;;1.73;1.63;;;8.40;99.90;;;;;;4985775;28;20211;-81
2022/10/09 03:50:50;;;;;;;2.00;1.20;;;8.40;99.90;;;;;;5018484;28;20235;-82
2022/10/09 03:53:16;;;;;;;1.17;1.10;;;8.30;99.90;;;;;;5001961;28;20281;-81
2022/10/09 03:55:42;;;;;;;5.40;1.87;;;8.30;99.90;;;;;;5003752;28;20992;-82
2022/10/09 03:58:08;;;;;;;4.43;1.57;;;8.30;99.90;;;;;;5003562;28;20215;-80
2022/10/09 04:00:35;;;;;;;1.50;1.40;;;8.30;99.90;;;;;;5002352;28;20247;-81
2022/10/09 04:03:00;;;;;;;4.67;1.47;;;8.30;99.90;;;;;;5002826;28;20247;-81
2022/10/09 04:05:26;;;;;;;4.97;2.63;;;8.30;99.90;;;;;;5000941;28;20215;-81
2022/10/09 04:07:52;;;;;;;1.93;1.67;;;8.20;99.90;;;;;;4990843;28;20238;-81
2022/10/09 04:10:18;;;;;;;1.43;1.33;;;8.20;99.90;;;;;;5018538;28;20219;-81
2022/10/09 04:12:44;;;;;;;3.77;2.27;;;8.30;99.90;;;;;;5002756;28;20306;-81
2022/10/09 04:15:10;;;;;;;3.17;1.33;;;8.20;99.90;;;;;;5001545;28;21079;-82
2022/10/09 04:17:36;;;;;;;2.87;2.57;;;8.20;99.90;;;;;;5001394;28;20243;-80
2022/10/09 04:20:02;;;;;;;1.93;1.73;;;8.20;99.90;;;;;;5003148;28;20286;-81
2022/10/09 04:22:27;;;;;;;1.93;1.77;;;8.30;99.90;;;;;;5018266;28;20191;-81
2022/10/09 04:24:53;;;;;;;3.93;1.47;;;8.20;99.90;;;;;;5033688;28;20234;-82
2022/10/09 04:27:19;;;;;;;3.33;1.83;;;8.20;99.90;;;;;;5033503;28;20234;-81
2022/10/09 04:29:44;;;;;;;1.53;1.30;;;8.10;99.90;;;;;;5002222;28;20219;-81
2022/10/09 04:32:10;;;;;;;1.73;1.63;;;8.10;99.90;;;;;;5002000;28;20227;-79
2022/10/09 04:34:36;;;;;;;2.27;1.83;;;8.10;99.90;;;;;;5018358;28;20199;-80
2022/10/09 04:37:02;;;;;;;1.10;1.03;;;8.10;99.90;;;;;;5002563;28;20238;-81
2022/10/09 04:39:28;;;;;;;1.83;1.67;;;8.10;99.90;;;;;;5002375;28;20660;-81
2022/10/09 04:41:53;;;;;;;2.50;1.33;;;8.10;99.90;;;;;;5034999;28;20310;-80
2022/10/09 04:44:19;;;;;;;3.07;1.40;;;8.10;99.90;;;;;;4998138;28;20253;-80
2022/10/09 04:46:45;;;;;;;1.97;1.80;;;8.10;99.90;;;;;;4996909;28;20513;-81
2022/10/09 04:49:12;;;;;;;4.23;1.90;;;8.10;99.90;;;;;;4997447;28;20230;-81
2022/10/09 04:51:38;;;;;;;3.13;2.13;;;8.10;99.90;;;;;;4998900;28;20391;-82
2022/10/09 04:54:06;;;;;;;2.80;2.60;;;8.10;99.90;;;;;;5000057;28;20227;-81
2022/10/09 04:56:32;;;;;;;2.77;2.53;;;8.10;99.90;;;;;;4999186;28;20341;-82
2022/10/09 04:58:58;;;;;;;4.67;3.13;;;8.20;99.90;;;;;;4999865;28;20195;-81
2022/10/09 05:01:26;;;;;;;2.33;1.80;;;8.20;99.90;;;;;;5032943;28;20234;-81
2022/10/09 05:03:52;;;;;;;2.17;1.43;;;8.10;99.90;;;;;;5000711;28;20719;-81
2022/10/09 05:06:22;;;;;;;2.07;1.97;;;8.10;99.90;;;;;;5000915;28;20239;-82
2022/10/09 05:08:49;;;;;;;1.47;1.37;;;8.10;99.90;;;;;;4997955;28;20207;-81
2022/10/09 05:11:20;;;;;;;2.30;2.13;;;8.00;99.90;;;;;;5000397;28;20314;-81
2022/10/09 05:13:48;;;;;;;3.03;2.60;;;8.00;99.90;;;;;;5000487;28;20206;-83
2022/10/09 05:16:17;;;;;;;2.87;1.63;;;8.00;99.90;;;;;;5032960;28;20211;-82
2022/10/09 05:18:45;;;;;;;2.47;2.27;;;8.10;99.90;;;;;;5009935;28;20218;-82
2022/10/09 05:21:11;;;;;;;2.30;2.10;;;8.00;99.90;;;;;;5004727;28;20231;-82
2022/10/09 05:23:37;;;;;;;3.10;2.83;;;8.00;99.90;;;;;;5003551;28;20587;-80
2022/10/09 05:26:10;;;;;;;3.97;2.93;;;8.10;99.90;;;;;;5005071;28;20198;-82
2022/10/09 05:28:36;;;;;;;2.97;2.60;;;8.10;99.90;;;;;;5003610;28;20695;-82
2022/10/09 05:31:03;;;;;;;2.70;2.50;;;8.00;99.90;;;;;;5003840;28;20227;-81
2022/10/09 05:33:32;;;;;;;5.10;4.07;;;8.00;99.90;;;;;;4986980;28;20215;-78
2022/10/09 05:36:00;;;;;;;8.07;3.90;;;8.00;99.90;;;;;;5002229;28;20250;-78
2022/10/09 05:38:27;;;;;;;23.80;2.53;;;8.00;99.90;;;;;;5017309;28;20227;-79
2022/10/09 05:40:54;;;;;;;4.43;2.23;;;8.00;99.90;;;;;;5002387;28;20199;-80
2022/10/09 05:43:26;;;;;;;11.00;2.30;;;7.90;99.90;;;;;;5002841;28;20203;-79
2022/10/09 05:45:55;;;;;;;35.00;2.60;;;7.80;99.90;;;;;;5010206;28;20215;-80
2022/10/09 05:48:26;;;;;;;4.30;2.50;;;7.70;99.90;;;;;;5003346;28;20226;-80
2022/10/09 05:50:52;;;;;;;24.30;2.63;;;7.60;99.90;;;;;;5034660;28;20574;-78
2022/10/09 05:53:18;;;;;;;2.53;2.30;;;7.60;99.90;;;;;;5034621;28;20238;-80
2022/10/09 05:55:43;;;;;;;4.50;2.80;;;7.60;99.90;;;;;;5003363;28;20274;-80
2022/10/09 05:58:09;;;;;;;13.20;4.57;;;7.50;99.90;;;;;;5003250;28;20222;-81
2022/10/09 06:00:35;;;;;;;16.10;5.20;;;7.60;99.90;;;;;;5018894;28;20293;-79
2022/10/09 06:03:01;;;;;;;12.60;7.57;;;7.50;99.90;;;;;;5000977;28;20262;-80
2022/10/09 06:05:27;;;;;;;15.17;8.33;;;7.60;99.90;;;;;;5018534;28;20216;-80
2022/10/09 06:07:52;;;;;;;16.93;10.73;;;7.60;99.90;;;;;;5034361;28;20189;-79
2022/10/09 06:10:24;;;;;;;14.43;8.37;;;7.60;99.90;;;;;;5001343;28;20211;-82
2022/10/09 06:12:50;;;;;;;40.80;8.33;;;7.70;99.90;;;;;;5034405;28;20230;-81
2022/10/09 06:15:16;;;;;;;6.27;5.67;;;7.70;99.90;;;;;;5017824;28;20207;-82
2022/10/09 06:17:41;;;;;;;5.10;4.60;;;7.80;99.90;;;;;;5002556;28;20247;-81
2022/10/09 06:20:08;;;;;;;20.00;4.27;;;8.00;99.90;;;;;;5034132;28;20235;-80
2022/10/09 06:22:36;;;;;;;6.80;4.77;;;8.00;99.90;;;;;;5007858;28;20245;-82
2022/10/09 06:25:05;;;;;;;5.23;3.93;;;8.20;99.90;;;;;;5016787;28;20747;-80
2022/10/09 06:27:30;;;;;;;6.03;3.80;;;8.50;99.90;;;;;;5005348;28;20227;-79
2022/10/09 06:29:56;;;;;;;5.60;5.10;;;8.90;99.90;;;;;;5033365;28;20505;-82
2022/10/09 06:32:22;;;;;;;4.10;3.60;;;9.30;99.90;;;;;;5002444;28;20585;-81
2022/10/09 06:34:48;;;;;;;14.83;5.87;;;10.00;99.90;;;;;;5000241;28;20212;-81
2022/10/09 06:37:13;;;;;;;9.50;5.67;;;10.10;99.90;;;;;;4998340;28;20688;-80
2022/10/09 06:39:39;;;;;;;6.43;4.90;;;9.70;99.90;;;;;;5019984;28;20221;-82
2022/10/09 06:42:05;;;;;;;10.60;4.13;;;9.50;99.90;;;;;;5002762;28;20230;-82
2022/10/09 06:44:33;;;;;;;11.57;6.37;;;9.50;99.90;;;;;;5016436;28;20242;-82
2022/10/09 06:46:59;;;;;;;6.97;5.03;;;9.60;99.90;;;;;;5000687;28;20188;-81
2022/10/09 06:49:25;;;;;;;4.40;3.77;;;9.60;99.90;;;;;;5006667;28;20184;-81
2022/10/09 06:51:53;;;;;;;5.13;4.30;;;9.50;99.90;;;;;;5005984;28;20253;-80
2022/10/09 06:54:22;;;;;;;3.77;2.90;;;9.40;99.90;;;;;;5003692;28;20215;-81
2022/10/09 06:56:48;;;;;;;15.30;3.53;;;9.50;99.90;;;;;;5032112;28;20215;-80
2022/10/09 06:59:13;;;;;;;7.80;4.83;;;9.70;99.90;;;;;;5034761;28;20302;-82
2022/10/09 07:01:39;;;;;;;4.93;3.20;;;9.80;99.90;;;;;;5001017;28;20231;-82
2022/10/09 07:04:10;;;;;;;6.63;3.53;;;9.90;99.90;;;;;;5000857;28;20641;-83
2022/10/09 07:06:39;;;;;;;7.13;3.93;;;10.10;99.90;;;;;;5001473;28;20700;-82
2022/10/09 07:09:07;;;;;;;9.03;3.33;;;10.10;99.90;;;;;;4999313;28;21145;-80
2022/10/09 07:11:39;;;;;;;5.23;3.60;;;10.00;99.90;;;;;;4999582;28;20776;-80
2022/10/09 07:14:07;;;;;;;4.90;3.47;;;10.10;99.90;;;;;;5001400;28;20179;-80
2022/10/09 07:16:38;;;;;;;9.77;4.20;;;10.30;99.90;;;;;;5001526;28;20191;-82
2022/10/09 07:19:07;;;;;;;4.83;3.97;;;10.30;99.90;;;;;;4999521;28;20219;-81
2022/10/09 07:21:36;;;;;;;4.23;3.77;;;10.40;99.90;;;;;;4984477;28;20584;-82
2022/10/09 07:24:06;;;;;;;3.20;2.90;;;10.60;99.90;;;;;;5000563;28;20852;-83
2022/10/09 07:26:38;;;;;;;6.30;2.97;;;10.70;99.90;;;;;;5001736;28;20215;-82
2022/10/09 07:29:07;;;;;;;4.10;3.50;;;11.30;99.90;;;;;;5000707;28;20188;-82
2022/10/09 07:31:33;;;;;;;12.57;5.90;;;12.40;99.90;;;;;;5002582;28;20200;-79
2022/10/09 07:33:59;;;;;;;11.07;5.57;;;13.30;99.90;;;;;;4999796;28;20211;-82
2022/10/09 07:36:25;;;;;;;12.50;5.93;;;14.00;99.90;;;;;;5001237;28;20212;-81
2022/10/09 07:38:53;;;;;;;14.93;8.27;;;14.80;99.90;;;;;;5003725;28;20639;-80
2022/10/09 07:41:20;;;;;;;15.50;7.80;;;15.70;99.90;;;;;;5002229;28;20305;-80
2022/10/09 07:43:46;;;;;;;10.20;7.40;;;16.50;99.90;;;;;;5004285;28;20183;-81
2022/10/09 07:46:14;;;;;;;9.20;4.87;;;16.30;99.90;;;;;;5002903;28;20265;-81
2022/10/09 07:48:41;;;;;;;5.63;4.17;;;16.90;99.90;;;;;;5002795;28;20983;-82
2022/10/09 07:51:15;;;;;;;9.33;2.80;;;17.30;99.90;;;;;;5003691;28;20269;-82
2022/10/09 07:53:41;;;;;;;2.10;1.90;;;17.70;99.90;;;;;;5003024;28;20284;-82
2022/10/09 07:56:16;;;;;;;3.47;2.60;;;18.20;99.90;;;;;;5002590;28;20184;-84
2022/10/09 07:58:42;;;;;;;2.20;2.00;;;18.70;99.90;;;;;;5004310;28;20182;-81
2022/10/09 08:01:09;;;;;;;5.93;2.97;;;19.40;99.90;;;;;;5003333;28;20250;-82
2022/10/09 08:03:36;;;;;;;3.30;1.90;;;19.80;99.90;;;;;;5003598;28;20231;-82
2022/10/09 08:06:02;;;;;;;2.40;2.20;;;19.90;99.90;;;;;;5002422;28;20685;-82
2022/10/09 08:08:28;;;;;;;3.70;2.30;;;19.70;99.90;;;;;;5002848;28;20230;-82
2022/10/09 08:10:54;;;;;;;3.23;2.70;;;20.10;99.90;;;;;;5035632;28;20211;-83
2022/10/09 08:13:20;;;;;;;3.40;2.83;;;20.50;99.90;;;;;;5003983;28;20260;-82
2022/10/09 08:15:45;;;;;;;2.57;2.20;;;20.90;99.90;;;;;;5003320;28;20260;-83
2022/10/09 08:18:11;;;;;;;2.83;2.30;;;21.30;99.90;;;;;;5003270;28;20235;-82
2022/10/09 08:20:38;;;;;;;5.53;2.40;;;21.50;99.90;;;;;;5004257;28;20226;-83
2022/10/09 08:23:04;;;;;;;3.60;2.70;;;21.50;99.90;;;;;;5004499;28;20234;-83
2022/10/09 08:25:36;;;;;;;3.80;1.90;;;21.50;99.90;;;;;;5002628;28;20176;-83
2022/10/09 08:28:02;;;;;;;2.27;2.07;;;21.10;99.90;;;;;;5004886;28;20215;-83
2022/10/09 08:30:28;;;;;;;4.23;2.30;;;20.50;99.90;;;;;;5003628;28;20227;-83
2022/10/09 08:32:54;;;;;;;3.60;2.53;;;19.80;99.90;;;;;;5018551;28;20268;-83
2022/10/09 08:35:19;;;;;;;7.07;2.33;;;19.70;99.90;;;;;;5002556;28;20219;-82
2022/10/09 08:37:45;;;;;;;3.17;2.50;;;19.50;99.90;;;;;;5004492;28;20202;-82
2022/10/09 08:40:30;;;;;;;5.20;2.23;;;18.80;99.90;;;;;;5003988;28;20258;-82
2022/10/09 08:43:02;;;;;;;5.83;1.93;;;17.70;99.90;;;;;;5003846;28;20215;-82
2022/10/09 08:45:29;;;;;;;5.60;1.47;;;16.70;99.90;;;;;;5003619;28;20772;-82
2022/10/09 08:48:04;;;;;;;4.07;2.17;;;16.10;99.90;;;;;;5018620;28;20223;-82
2022/10/09 08:50:37;;;;;;;4.87;2.00;;;15.60;99.90;;;;;;5003477;28;20243;-83
2022/10/09 08:53:24;;;;;;;2.67;2.20;;;15.50;99.90;;;;;;5002728;28;20183;-83
2022/10/09 08:56:01;;;;;;;2.03;1.83;;;15.10;99.90;;;;;;5003855;28;20637;-82
2022/10/09 08:58:36;;;;;;;2.07;1.90;;;15.00;99.90;;;;;;5004593;28;20711;-83
2022/10/09 09:01:29;;;;;;;2.80;1.83;;;14.90;99.90;;;;;;5003366;28;20242;-83
2022/10/09 09:04:36;;;;;;;1.70;1.60;;;15.00;99.90;;;;;;5002119;28;20230;-80
2022/10/09 09:07:16;;;;;;;2.30;1.97;;;15.00;99.90;;;;;;5003575;28;20234;-83
2022/10/09 09:09:42;;;;;;;5.97;1.53;;;15.00;99.90;;;;;;5003273;28;20627;-81
2022/10/09 09:12:20;;;;;;;4.87;1.40;;;14.90;99.90;;;;;;5004069;28;20697;-80
2022/10/09 09:15:21;;;;;;;3.47;1.60;;;14.60;99.90;;;;;;5002864;28;20254;-82
2022/10/09 09:18:05;;;;;;;2.73;1.67;;;14.80;99.90;;;;;;5003444;28;20604;-82
2022/10/09 09:20:38;;;;;;;12.37;1.87;;;14.90;99.90;;;;;;5003699;28;20254;-83
2022/10/09 09:23:11;;;;;;;8.13;2.27;;;14.90;99.90;;;;;;5003932;28;20285;-83
2022/10/09 09:25:40;;;;;;;0.80;0.80;;;15.00;99.90;;;;;;5003246;28;20188;-83
2022/10/09 09:28:28;;;;;;;2.10;1.20;;;14.90;99.90;;;;;;5002285;28;20227;-83
2022/10/09 09:31:07;;;;;;;4.17;1.83;;;15.00;99.90;;;;;;5003439;28;20223;-83
2022/10/09 09:33:42;;;;;;;3.40;1.10;;;15.20;99.90;;;;;;5003771;28;20231;-81
2022/10/09 09:36:32;;;;;;;7.70;2.40;;;15.00;99.90;;;;;;5002800;28;20207;-82
2022/10/09 09:38:58;;;;;;;4.10;1.13;;;14.90;99.90;;;;;;5001843;28;20211;-82
2022/10/09 09:41:24;;;;;;;2.73;1.00;;;15.20;99.90;;;;;;5008978;28;20575;-81
2022/10/09 09:43:49;;;;;;;4.57;1.33;;;15.20;99.90;;;;;;5002268;28;20655;-82
2022/10/09 09:46:18;;;;;;;5.57;1.10;;;15.10;99.90;;;;;;5002973;28;20230;-82
2022/10/09 09:48:47;;;;;;;3.43;0.90;;;14.90;99.90;;;;;;5002224;28;20227;-83
2022/10/09 09:51:27;;;;;;;2.00;0.93;;;15.10;99.90;;;;;;5011537;28;20247;-82
2022/10/09 09:53:55;;;;;;;1.23;1.13;;;15.10;99.90;;;;;;5034882;28;21042;-82
2022/10/09 09:56:37;;;;;;;2.90;1.60;;;15.00;99.90;;;;;;5003364;28;20691;-81
2022/10/09 09:59:03;;;;;;;1.30;1.13;;;15.10;99.90;;;;;;5001876;28;20183;-82
2022/10/09 10:01:30;;;;;;;3.33;1.50;;;15.10;99.90;;;;;;5019017;28;20242;-83
2022/10/09 10:03:59;;;;;;;0.93;0.70;;;15.30;99.90;;;;;;5004755;28;20226;-82
2022/10/09 10:06:29;;;;;;;7.57;1.30;;;15.70;99.90;;;;;;5006705;28;20322;-84
2022/10/09 10:09:03;;;;;;;4.23;1.63;;;15.80;99.90;;;;;;5006430;28;20269;-83
2022/10/09 10:11:31;;;;;;;2.47;0.97;;;16.40;99.90;;;;;;5006748;28;20239;-84
2022/10/09 10:14:05;;;;;;;2.57;1.53;;;16.90;99.90;;;;;;5021384;28;20180;-82
2022/10/09 10:16:35;;;;;;;1.37;1.10;;;17.20;99.90;;;;;;5007237;28;20206;-81
2022/10/09 10:19:02;;;;;;;2.00;1.00;;;17.50;99.90;;;;;;5006328;28;20510;-81
2022/10/09 10:21:46;;;;;;;2.43;1.00;;;17.70;99.90;;;;;;5037774;28;20723;-82
2022/10/09 10:24:19;;;;;;;5.43;1.63;;;18.10;99.90;;;;;;5005621;28;20218;-82
2022/10/09 10:26:54;;;;;;;4.70;1.80;;;18.30;99.90;;;;;;5005953;28;20215;-82
2022/10/09 10:29:24;;;;;;;4.03;1.40;;;18.30;99.90;;;;;;5005704;28;20221;-81
2022/10/09 10:32:08;;;;;;;0.93;0.90;;;18.50;99.90;;;;;;5006149;28;20649;-82
2022/10/09 10:34:40;;;;;;;1.93;1.13;;;18.50;99.90;;;;;;5006611;28;20215;-83
2022/10/09 10:37:12;;;;;;;3.27;1.63;;;18.80;99.90;;;;;;4987792;28;20247;-82
2022/10/09 10:40:00;;;;;;;1.47;1.20;;;18.90;99.90;;;;;;4985829;28;20215;-81
2022/10/09 10:43:16;;;;;;;2.70;1.43;;;18.90;99.90;;;;;;4985810;28;20748;-82
2022/10/09 10:45:41;;;;;;;3.13;1.50;;;19.00;99.90;;;;;;5005853;28;20281;-82
2022/10/09 10:48:14;;;;;;;3.50;1.57;;;19.00;99.90;;;;;;4986679;28;20601;-80
2022/10/09 10:50:48;;;;;;;8.10;1.50;;;18.90;99.90;;;;;;4985708;28;20594;-82
2022/10/09 10:53:32;;;;;;;5.10;1.23;;;19.00;99.90;;;;;;4986263;28;21027;-82
2022/10/09 10:56:11;;;;;;;4.00;1.80;;;19.70;99.90;;;;;;4985616;28;20270;-83
2022/10/09 10:59:03;;;;;;;3.90;1.40;;;19.50;99.90;;;;;;4985622;28;20179;-84
2022/10/09 11:01:52;;;;;;;2.10;1.67;;;19.00;99.90;;;;;;4986215;28;20269;-82
2022/10/09 11:04:46;;;;;;;4.60;1.50;;;18.60;99.90;;;;;;5036534;28;21057;-84
2022/10/09 11:07:26;;;;;;;3.03;1.47;;;18.70;99.90;;;;;;4985990;28;20220;-82
2022/10/09 11:10:06;;;;;;;5.33;1.93;;;18.60;99.90;;;;;;4985217;28;20231;-83
2022/10/09 11:12:44;;;;;;;2.33;1.10;;;18.80;99.90;;;;;;4984902;28;20219;-85
2022/10/09 11:15:36;;;;;;;1.77;1.07;;;19.20;99.90;;;;;;4984141;28;20706;-82
2022/10/09 11:18:14;;;;;;;1.73;1.47;;;19.00;99.90;;;;;;4991564;28;20216;-84
2022/10/09 11:21:01;;;;;;;4.10;1.50;;;18.50;99.90;;;;;;4984811;28;20224;-82
2022/10/09 11:23:48;;;;;;;3.47;1.60;;;18.50;99.90;;;;;;4985710;28;20208;-83
2022/10/09 11:26:39;;;;;;;5.80;1.37;;;18.90;99.90;;;;;;4984784;28;20220;-82
2022/10/09 11:29:23;;;;;;;6.03;1.07;;;19.20;99.90;;;;;;4984719;28;20172;-82
2022/10/09 11:32:03;;;;;;;4.10;1.00;;;19.40;99.90;;;;;;4984557;28;20690;-84
2022/10/09 11:34:33;;;;;;;1.47;1.07;;;19.30;99.90;;;;;;4983742;28;20673;-85
2022/10/09 11:37:00;;;;;;;3.23;1.10;;;19.20;99.90;;;;;;4984703;28;20688;-84
2022/10/09 11:39:29;;;;;;;0.90;0.67;;;19.10;99.90;;;;;;4985816;28;20238;-85
2022/10/09 11:41:56;;;;;;;2.90;1.10;;;19.10;99.90;;;;;;4984607;28;20277;-87
2022/10/09 11:44:55;;;;;;;4.13;1.70;;;18.80;99.90;;;;;;5000831;28;20223;-86
2022/10/09 11:47:24;;;;;;;1.70;0.90;;;18.60;99.90;;;;;;4983699;28;20222;-86
2022/10/09 11:50:01;;;;;;;3.57;1.20;;;18.60;99.90;;;;;;4984046;28;20206;-86
2022/10/09 11:52:33;;;;;;;1.77;1.00;;;18.20;99.90;;;;;;5016612;28;20226;-86
2022/10/09 11:55:23;;;;;;;1.30;0.93;;;18.10;99.90;;;;;;4983115;28;20286;-86
2022/10/09 11:57:49;;;;;;;3.43;0.90;;;18.40;99.90;;;;;;4983637;28;20219;-86
2022/10/09 12:00:27;;;;;;;0.87;0.83;;;18.40;99.90;;;;;;4995198;28;20305;-85
2022/10/09 12:03:00;;;;;;;1.70;1.13;;;17.90;99.90;;;;;;4995214;28;20259;-86
2022/10/09 12:05:42;;;;;;;2.87;1.00;;;17.80;99.90;;;;;;4985191;28;20214;-86
2022/10/09 12:08:25;;;;;;;0.83;0.83;;;17.90;99.90;;;;;;4983378;28;20219;-84
2022/10/09 12:10:57;;;;;;;3.10;0.63;;;18.30;99.90;;;;;;4973594;28;20290;-85
2022/10/09 12:13:40;;;;;;;1.87;0.73;;;18.20;99.90;;;;;;4982686;28;20239;-86
2022/10/09 12:16:07;;;;;;;4.03;1.00;;;18.00;99.90;;;;;;4984048;28;20239;-85
2022/10/09 12:18:45;;;;;;;1.33;1.07;;;17.50;99.90;;;;;;4984610;28;21097;-83
2022/10/09 12:21:52;;;;;;;1.50;1.27;;;17.30;99.90;;;;;;4984148;28;20220;-83
2022/10/09 12:24:24;;;;;;;3.67;0.90;;;17.10;99.90;;;;;;4984996;28;20512;-87
2022/10/09 12:26:53;;;;;;;1.43;0.90;;;17.00;99.90;;;;;;4997121;28;20224;-87
2022/10/09 12:29:25;;;;;;;5.60;0.83;;;17.20;99.90;;;;;;5016961;28;20295;-88
2022/10/09 12:31:55;;;;;;;1.30;0.73;;;17.20;99.90;;;;;;4986164;28;20548;-89
2022/10/09 12:34:32;;;;;;;6.23;0.90;;;17.20;99.90;;;;;;4983985;28;20663;-89
2022/10/09 12:37:29;;;;;;;3.90;1.27;;;17.00;99.90;;;;;;4991695;28;20736;-87
2022/10/09 12:40:12;;;;;;;0.77;0.67;;;16.80;99.90;;;;;;4985454;28;20243;-87
2022/10/09 12:42:38;;;;;;;1.83;1.10;;;16.80;99.90;;;;;;4983579;28;20215;-89
2022/10/09 12:45:05;;;;;;;1.03;0.80;;;16.70;99.90;;;;;;5015525;28;20220;-86
2022/10/09 12:47:34;;;;;;;1.17;0.87;;;16.70;99.90;;;;;;4982715;28;20216;-85
2022/10/09 12:50:23;;;;;;;1.97;0.70;;;16.60;99.90;;;;;;4976583;28;20192;-87
2022/10/09 12:52:54;;;;;;;1.20;0.90;;;16.80;99.90;;;;;;4984235;28;20184;-87
2022/10/09 12:55:32;;;;;;;4.07;1.77;;;16.90;99.90;;;;;;4983468;28;20716;-88
2022/10/09 12:58:12;;;;;;;2.20;0.97;;;16.90;99.90;;;;;;4984166;28;20245;-88
2022/10/09 13:00:39;;;;;;;3.27;1.17;;;16.80;99.90;;;;;;4983687;28;20791;-87
2022/10/09 13:03:05;;;;;;;2.53;0.90;;;16.90;99.90;;;;;;5016277;28;20233;-86
2022/10/09 13:05:36;;;;;;;2.93;1.03;;;16.70;99.90;;;;;;4982514;28;20318;-87
2022/10/09 13:08:02;;;;;;;2.50;0.70;;;16.80;99.90;;;;;;4989316;28;20310;-89
2022/10/09 13:10:28;;;;;;;4.53;1.30;;;16.70;99.90;;;;;;4982205;28;20207;-86